sensor_id;sensor_type;location;lat;lon;timestamp;P1;durP1;ratioP1;P2;durP2;ratioP2
17151;SDS011;8691;50.828;4.700;2023-03-01T00:01:23;13.85;;;12.45;;
17151;SDS011;8691;50.828;4.700;2023-03-01T00:03:50;14.10;;;12.80;;
17151;SDS011;8691;50.828;4.700;2023-03-01T00:06:17;14.37;;;12.87;;
17151;SDS011;8691;50.828;4.700;2023-03-01T00:08:44;14.70;;;13.00;;
17151;SDS011;8691;50.828;4.700;2023-03-01T00:13:48;14.12;;;12.82;;
17151;SDS011;8691;50.828;4.700;2023-03-01T00:16:18;14.27;;;12.87;;
17151;SDS011;8691;50.828;4.700;2023-03-01T00:18:47;14.80;;;13.27;;
17151;SDS011;8691;50.828;4.700;2023-03-01T00:21:14;14.10;;;12.65;;
17151;SDS011;8691;50.828;4.700;2023-03-01T00:23:41;15.00;;;13.60;;
17151;SDS011;8691;50.828;4.700;2023-03-01T00:26:09;14.90;;;13.50;;
17151;SDS011;8691;50.828;4.700;2023-03-01T00:28:35;13.57;;;12.20;;
17151;SDS011;8691;50.828;4.700;2023-03-01T00:31:05;14.00;;;12.60;;
17151;SDS011;8691;50.828;4.700;2023-03-01T00:33:38;14.30;;;12.90;;
17151;SDS011;8691;50.828;4.700;2023-03-01T00:36:05;14.97;;;13.47;;
17151;SDS011;8691;50.828;4.700;2023-03-01T00:38:40;15.52;;;13.93;;
17151;SDS011;8691;50.828;4.700;2023-03-01T00:41:07;15.12;;;13.62;;
17151;SDS011;8691;50.828;4.700;2023-03-01T00:43:33;14.45;;;13.05;;
17151;SDS011;8691;50.828;4.700;2023-03-01T00:46:00;15.18;;;13.62;;
17151;SDS011;8691;50.828;4.700;2023-03-01T00:48:28;14.90;;;13.40;;
17151;SDS011;8691;50.828;4.700;2023-03-01T00:50:54;15.13;;;13.53;;
17151;SDS011;8691;50.828;4.700;2023-03-01T00:53:21;16.00;;;13.43;;
17151;SDS011;8691;50.828;4.700;2023-03-01T00:55:48;14.20;;;12.82;;
17151;SDS011;8691;50.828;4.700;2023-03-01T00:58:15;14.05;;;12.65;;
17151;SDS011;8691;50.828;4.700;2023-03-01T01:00:42;13.77;;;12.40;;
17151;SDS011;8691;50.828;4.700;2023-03-01T01:03:09;14.15;;;12.85;;
17151;SDS011;8691;50.828;4.700;2023-03-01T01:05:36;13.60;;;12.30;;
17151;SDS011;8691;50.828;4.700;2023-03-01T01:08:03;14.05;;;12.65;;
17151;SDS011;8691;50.828;4.700;2023-03-01T01:10:30;14.07;;;12.57;;
17151;SDS011;8691;50.828;4.700;2023-03-01T01:12:58;13.00;;;11.80;;
17151;SDS011;8691;50.828;4.700;2023-03-01T01:15:26;12.82;;;11.52;;
17151;SDS011;8691;50.828;4.700;2023-03-01T01:17:53;13.60;;;12.32;;
17151;SDS011;8691;50.828;4.700;2023-03-01T01:20:19;10.93;;;9.80;;
17151;SDS011;8691;50.828;4.700;2023-03-01T01:22:46;12.47;;;11.20;;
17151;SDS011;8691;50.828;4.700;2023-03-01T01:25:13;14.00;;;12.70;;
17151;SDS011;8691;50.828;4.700;2023-03-01T01:27:41;13.50;;;12.20;;
17151;SDS011;8691;50.828;4.700;2023-03-01T01:30:08;13.17;;;11.90;;
17151;SDS011;8691;50.828;4.700;2023-03-01T01:32:36;12.80;;;11.60;;
17151;SDS011;8691;50.828;4.700;2023-03-01T01:35:02;13.30;;;12.00;;
17151;SDS011;8691;50.828;4.700;2023-03-01T01:37:29;12.50;;;11.30;;
17151;SDS011;8691;50.828;4.700;2023-03-01T01:39:59;13.90;;;12.50;;
17151;SDS011;8691;50.828;4.700;2023-03-01T01:42:28;14.85;;;13.35;;
17151;SDS011;8691;50.828;4.700;2023-03-01T01:47:54;14.20;;;12.90;;
17151;SDS011;8691;50.828;4.700;2023-03-01T01:50:21;12.93;;;11.62;;
17151;SDS011;8691;50.828;4.700;2023-03-01T01:52:48;13.73;;;12.40;;
17151;SDS011;8691;50.828;4.700;2023-03-01T01:55:16;13.50;;;12.20;;
17151;SDS011;8691;50.828;4.700;2023-03-01T01:57:43;13.93;;;12.43;;
17151;SDS011;8691;50.828;4.700;2023-03-01T02:00:13;13.12;;;11.93;;
17151;SDS011;8691;50.828;4.700;2023-03-01T02:02:38;13.68;;;12.38;;
17151;SDS011;8691;50.828;4.700;2023-03-01T02:05:12;13.80;;;12.40;;
17151;SDS011;8691;50.828;4.700;2023-03-01T02:07:35;14.80;;;11.80;;
17151;SDS011;8691;50.828;4.700;2023-03-01T02:10:03;13.90;;;12.52;;
17151;SDS011;8691;50.828;4.700;2023-03-01T02:12:30;13.90;;;12.60;;
17151;SDS011;8691;50.828;4.700;2023-03-01T02:14:57;14.80;;;13.07;;
17151;SDS011;8691;50.828;4.700;2023-03-01T02:17:24;15.93;;;13.73;;
17151;SDS011;8691;50.828;4.700;2023-03-01T02:22:43;17.00;;;13.90;;
17151;SDS011;8691;50.828;4.700;2023-03-01T02:30:19;15.38;;;13.80;;
17151;SDS011;8691;50.828;4.700;2023-03-01T02:32:45;16.08;;;14.50;;
17151;SDS011;8691;50.828;4.700;2023-03-01T02:35:13;15.40;;;13.80;;
17151;SDS011;8691;50.828;4.700;2023-03-01T02:37:40;14.57;;;13.25;;
17151;SDS011;8691;50.828;4.700;2023-03-01T02:40:08;16.17;;;14.57;;
17151;SDS011;8691;50.828;4.700;2023-03-01T02:42:35;15.68;;;13.75;;
17151;SDS011;8691;50.828;4.700;2023-03-01T02:45:02;15.43;;;13.82;;
17151;SDS011;8691;50.828;4.700;2023-03-01T02:47:29;15.10;;;13.68;;
17151;SDS011;8691;50.828;4.700;2023-03-01T02:49:56;14.67;;;13.27;;
17151;SDS011;8691;50.828;4.700;2023-03-01T02:54:52;14.80;;;13.23;;
17151;SDS011;8691;50.828;4.700;2023-03-01T02:57:30;15.65;;;14.05;;
17151;SDS011;8691;50.828;4.700;2023-03-01T02:59:57;15.73;;;14.17;;
17151;SDS011;8691;50.828;4.700;2023-03-01T03:02:24;15.70;;;14.27;;
17151;SDS011;8691;50.828;4.700;2023-03-01T03:05:03;15.73;;;13.98;;
17151;SDS011;8691;50.828;4.700;2023-03-01T03:07:33;16.30;;;14.68;;
17151;SDS011;8691;50.828;4.700;2023-03-01T03:10:00;14.70;;;13.30;;
17151;SDS011;8691;50.828;4.700;2023-03-01T03:12:27;15.75;;;14.10;;
17151;SDS011;8691;50.828;4.700;2023-03-01T03:14:53;15.23;;;13.73;;
17151;SDS011;8691;50.828;4.700;2023-03-01T03:17:20;14.95;;;13.45;;
17151;SDS011;8691;50.828;4.700;2023-03-01T03:19:47;14.48;;;13.02;;
17151;SDS011;8691;50.828;4.700;2023-03-01T03:22:14;14.90;;;13.30;;
17151;SDS011;8691;50.828;4.700;2023-03-01T03:24:42;14.77;;;13.38;;
17151;SDS011;8691;50.828;4.700;2023-03-01T03:27:10;14.48;;;12.95;;
17151;SDS011;8691;50.828;4.700;2023-03-01T03:29:37;14.37;;;13.07;;
17151;SDS011;8691;50.828;4.700;2023-03-01T03:32:04;14.38;;;13.00;;
17151;SDS011;8691;50.828;4.700;2023-03-01T03:34:31;14.90;;;13.45;;
17151;SDS011;8691;50.828;4.700;2023-03-01T03:36:57;15.73;;;14.23;;
17151;SDS011;8691;50.828;4.700;2023-03-01T03:39:25;15.57;;;14.07;;
17151;SDS011;8691;50.828;4.700;2023-03-01T03:41:51;14.85;;;13.45;;
17151;SDS011;8691;50.828;4.700;2023-03-01T03:44:19;14.77;;;13.33;;
17151;SDS011;8691;50.828;4.700;2023-03-01T03:46:46;14.75;;;13.27;;
17151;SDS011;8691;50.828;4.700;2023-03-01T03:49:13;14.60;;;13.10;;
17151;SDS011;8691;50.828;4.700;2023-03-01T03:51:40;14.60;;;13.18;;
17151;SDS011;8691;50.828;4.700;2023-03-01T03:54:07;14.52;;;13.12;;
17151;SDS011;8691;50.828;4.700;2023-03-01T03:56:34;15.30;;;13.80;;
17151;SDS011;8691;50.828;4.700;2023-03-01T03:59:01;15.20;;;13.70;;
17151;SDS011;8691;50.828;4.700;2023-03-01T04:01:28;14.77;;;13.38;;
17151;SDS011;8691;50.828;4.700;2023-03-01T04:03:55;15.05;;;13.52;;
17151;SDS011;8691;50.828;4.700;2023-03-01T04:06:22;15.27;;;13.77;;
17151;SDS011;8691;50.828;4.700;2023-03-01T04:08:49;15.05;;;13.65;;
17151;SDS011;8691;50.828;4.700;2023-03-01T04:11:15;14.25;;;12.85;;
17151;SDS011;8691;50.828;4.700;2023-03-01T04:13:56;14.80;;;13.30;;
17151;SDS011;8691;50.828;4.700;2023-03-01T04:16:22;14.10;;;12.80;;
17151;SDS011;8691;50.828;4.700;2023-03-01T04:18:49;11.73;;;10.13;;
17151;SDS011;8691;50.828;4.700;2023-03-01T04:21:15;14.63;;;13.23;;
17151;SDS011;8691;50.828;4.700;2023-03-01T04:23:42;14.10;;;12.77;;
17151;SDS011;8691;50.828;4.700;2023-03-01T04:26:09;15.25;;;13.40;;
17151;SDS011;8691;50.828;4.700;2023-03-01T04:28:37;14.95;;;13.55;;
17151;SDS011;8691;50.828;4.700;2023-03-01T04:31:04;14.95;;;13.52;;
17151;SDS011;8691;50.828;4.700;2023-03-01T04:33:30;14.48;;;12.93;;
17151;SDS011;8691;50.828;4.700;2023-03-01T04:35:57;15.70;;;13.25;;
17151;SDS011;8691;50.828;4.700;2023-03-01T04:38:24;14.43;;;13.00;;
17151;SDS011;8691;50.828;4.700;2023-03-01T04:40:51;14.25;;;12.93;;
17151;SDS011;8691;50.828;4.700;2023-03-01T04:43:18;14.45;;;13.05;;
17151;SDS011;8691;50.828;4.700;2023-03-01T04:45:46;13.98;;;12.68;;
17151;SDS011;8691;50.828;4.700;2023-03-01T04:48:13;14.18;;;12.68;;
17151;SDS011;8691;50.828;4.700;2023-03-01T04:50:40;14.10;;;12.80;;
17151;SDS011;8691;50.828;4.700;2023-03-01T04:53:07;13.55;;;12.32;;
17151;SDS011;8691;50.828;4.700;2023-03-01T04:55:34;14.10;;;12.70;;
17151;SDS011;8691;50.828;4.700;2023-03-01T04:58:01;13.98;;;12.57;;
17151;SDS011;8691;50.828;4.700;2023-03-01T05:00:28;13.80;;;12.40;;
17151;SDS011;8691;50.828;4.700;2023-03-01T05:02:56;13.90;;;12.43;;
17151;SDS011;8691;50.828;4.700;2023-03-01T05:05:32;13.88;;;12.55;;
17151;SDS011;8691;50.828;4.700;2023-03-01T05:08:01;13.85;;;12.45;;
17151;SDS011;8691;50.828;4.700;2023-03-01T05:10:28;13.53;;;12.33;;
17151;SDS011;8691;50.828;4.700;2023-03-01T05:12:54;13.98;;;12.68;;
17151;SDS011;8691;50.828;4.700;2023-03-01T05:15:21;11.67;;;9.40;;
17151;SDS011;8691;50.828;4.700;2023-03-01T05:17:48;15.37;;;13.77;;
17151;SDS011;8691;50.828;4.700;2023-03-01T05:20:15;14.50;;;13.10;;
17151;SDS011;8691;50.828;4.700;2023-03-01T05:22:41;9.83;;;8.97;;
17151;SDS011;8691;50.828;4.700;2023-03-01T05:25:08;14.35;;;12.85;;
17151;SDS011;8691;50.828;4.700;2023-03-01T05:27:36;14.38;;;13.07;;
17151;SDS011;8691;50.828;4.700;2023-03-01T05:30:03;14.68;;;13.30;;
17151;SDS011;8691;50.828;4.700;2023-03-01T05:32:29;14.52;;;13.00;;
17151;SDS011;8691;50.828;4.700;2023-03-01T05:34:56;14.32;;;12.93;;
17151;SDS011;8691;50.828;4.700;2023-03-01T05:37:23;15.05;;;13.40;;
17151;SDS011;8691;50.828;4.700;2023-03-01T05:39:50;14.00;;;12.70;;
17151;SDS011;8691;50.828;4.700;2023-03-01T05:42:17;14.98;;;13.40;;
17151;SDS011;8691;50.828;4.700;2023-03-01T05:44:45;14.90;;;13.07;;
17151;SDS011;8691;50.828;4.700;2023-03-01T05:47:12;14.50;;;13.07;;
17151;SDS011;8691;50.828;4.700;2023-03-01T05:49:39;14.68;;;13.27;;
17151;SDS011;8691;50.828;4.700;2023-03-01T05:52:06;14.57;;;13.18;;
17151;SDS011;8691;50.828;4.700;2023-03-01T05:54:33;14.50;;;12.53;;
17151;SDS011;8691;50.828;4.700;2023-03-01T05:56:59;14.10;;;12.82;;
17151;SDS011;8691;50.828;4.700;2023-03-01T05:59:27;15.00;;;13.57;;
17151;SDS011;8691;50.828;4.700;2023-03-01T06:01:54;14.35;;;13.05;;
17151;SDS011;8691;50.828;4.700;2023-03-01T06:04:21;14.45;;;13.05;;
17151;SDS011;8691;50.828;4.700;2023-03-01T06:06:49;14.73;;;13.18;;
17151;SDS011;8691;50.828;4.700;2023-03-01T06:09:16;14.43;;;12.83;;
17151;SDS011;8691;50.828;4.700;2023-03-01T06:11:43;14.60;;;13.20;;
17151;SDS011;8691;50.828;4.700;2023-03-01T06:14:11;14.80;;;13.12;;
17151;SDS011;8691;50.828;4.700;2023-03-01T06:30:39;15.43;;;13.57;;
17151;SDS011;8691;50.828;4.700;2023-03-01T06:33:05;12.20;;;10.47;;
17151;SDS011;8691;50.828;4.700;2023-03-01T06:35:33;10.40;;;9.37;;
17151;SDS011;8691;50.828;4.700;2023-03-01T06:38:00;9.73;;;8.73;;
17151;SDS011;8691;50.828;4.700;2023-03-01T06:40:26;10.30;;;9.20;;
17151;SDS011;8691;50.828;4.700;2023-03-01T06:42:52;12.20;;;9.10;;
17151;SDS011;8691;50.828;4.700;2023-03-01T06:45:19;11.60;;;9.23;;
17151;SDS011;8691;50.828;4.700;2023-03-01T06:47:46;9.90;;;9.00;;
17151;SDS011;8691;50.828;4.700;2023-03-01T06:50:13;10.27;;;9.27;;
17151;SDS011;8691;50.828;4.700;2023-03-01T06:52:39;10.50;;;8.60;;
17151;SDS011;8691;50.828;4.700;2023-03-01T06:55:06;10.57;;;9.47;;
17151;SDS011;8691;50.828;4.700;2023-03-01T06:57:32;11.97;;;10.33;;
17151;SDS011;8691;50.828;4.700;2023-03-01T06:59:59;11.10;;;9.50;;
17151;SDS011;8691;50.828;4.700;2023-03-01T07:02:25;10.07;;;9.13;;
17151;SDS011;8691;50.828;4.700;2023-03-01T07:04:53;11.67;;;9.70;;
17151;SDS011;8691;50.828;4.700;2023-03-01T07:07:20;9.27;;;8.37;;
17151;SDS011;8691;50.828;4.700;2023-03-01T07:09:48;10.70;;;9.53;;
17151;SDS011;8691;50.828;4.700;2023-03-01T07:12:13;14.80;;;9.93;;
17151;SDS011;8691;50.828;4.700;2023-03-01T07:14:41;12.50;;;8.97;;
17151;SDS011;8691;50.828;4.700;2023-03-01T07:17:08;12.80;;;8.83;;
17151;SDS011;8691;50.828;4.700;2023-03-01T07:19:35;15.15;;;13.38;;
17151;SDS011;8691;50.828;4.700;2023-03-01T07:22:03;15.75;;;13.80;;
17151;SDS011;8691;50.828;4.700;2023-03-01T07:24:29;11.60;;;10.50;;
17151;SDS011;8691;50.828;4.700;2023-03-01T07:26:55;12.33;;;9.60;;
17151;SDS011;8691;50.828;4.700;2023-03-01T07:29:22;10.37;;;9.33;;
17151;SDS011;8691;50.828;4.700;2023-03-01T07:31:49;12.33;;;10.00;;
17151;SDS011;8691;50.828;4.700;2023-03-01T07:34:15;12.23;;;10.03;;
17151;SDS011;8691;50.828;4.700;2023-03-01T07:36:42;10.30;;;9.07;;
17151;SDS011;8691;50.828;4.700;2023-03-01T07:39:09;12.03;;;9.33;;
17151;SDS011;8691;50.828;4.700;2023-03-01T07:41:35;13.10;;;10.33;;
17151;SDS011;8691;50.828;4.700;2023-03-01T07:44:02;11.20;;;9.57;;
17151;SDS011;8691;50.828;4.700;2023-03-01T07:46:28;11.63;;;10.13;;
17151;SDS011;8691;50.828;4.700;2023-03-01T07:48:56;12.53;;;10.70;;
17151;SDS011;8691;50.828;4.700;2023-03-01T07:51:22;11.23;;;10.13;;
17151;SDS011;8691;50.828;4.700;2023-03-01T07:53:49;13.03;;;10.67;;
17151;SDS011;8691;50.828;4.700;2023-03-01T07:56:16;12.60;;;11.23;;
17151;SDS011;8691;50.828;4.700;2023-03-01T07:58:43;14.15;;;12.85;;
17151;SDS011;8691;50.828;4.700;2023-03-01T08:01:11;11.73;;;10.63;;
17151;SDS011;8691;50.828;4.700;2023-03-01T08:03:37;11.37;;;10.17;;
17151;SDS011;8691;50.828;4.700;2023-03-01T08:06:04;12.07;;;9.23;;
17151;SDS011;8691;50.828;4.700;2023-03-01T08:08:30;9.93;;;8.90;;
17151;SDS011;8691;50.828;4.700;2023-03-01T08:10:57;10.00;;;9.10;;
17151;SDS011;8691;50.828;4.700;2023-03-01T08:13:23;9.70;;;8.57;;
17151;SDS011;8691;50.828;4.700;2023-03-01T08:15:50;9.10;;;8.20;;
17151;SDS011;8691;50.828;4.700;2023-03-01T08:18:17;9.33;;;8.43;;
17151;SDS011;8691;50.828;4.700;2023-03-01T08:20:44;9.70;;;8.73;;
17151;SDS011;8691;50.828;4.700;2023-03-01T08:23:11;10.70;;;9.60;;
17151;SDS011;8691;50.828;4.700;2023-03-01T08:25:38;9.30;;;8.40;;
17151;SDS011;8691;50.828;4.700;2023-03-01T08:28:05;9.47;;;8.57;;
17151;SDS011;8691;50.828;4.700;2023-03-01T08:30:31;8.53;;;7.73;;
17151;SDS011;8691;50.828;4.700;2023-03-01T08:32:58;9.87;;;8.60;;
17151;SDS011;8691;50.828;4.700;2023-03-01T08:35:25;9.43;;;8.43;;
17151;SDS011;8691;50.828;4.700;2023-03-01T08:37:51;9.03;;;8.10;;
17151;SDS011;8691;50.828;4.700;2023-03-01T08:40:18;10.53;;;8.90;;
17151;SDS011;8691;50.828;4.700;2023-03-01T08:42:44;9.10;;;7.73;;
17151;SDS011;8691;50.828;4.700;2023-03-01T08:45:12;10.77;;;9.77;;
17151;SDS011;8691;50.828;4.700;2023-03-01T08:47:39;9.63;;;8.60;;
17151;SDS011;8691;50.828;4.700;2023-03-01T08:50:06;9.83;;;8.83;;
17151;SDS011;8691;50.828;4.700;2023-03-01T08:52:33;9.60;;;8.67;;
17151;SDS011;8691;50.828;4.700;2023-03-01T08:55:00;9.50;;;8.60;;
17151;SDS011;8691;50.828;4.700;2023-03-01T08:57:27;10.00;;;9.00;;
17151;SDS011;8691;50.828;4.700;2023-03-01T08:59:54;9.63;;;8.63;;
17151;SDS011;8691;50.828;4.700;2023-03-01T09:02:21;11.93;;;8.67;;
17151;SDS011;8691;50.828;4.700;2023-03-01T09:04:48;9.90;;;8.90;;
17151;SDS011;8691;50.828;4.700;2023-03-01T09:07:15;9.83;;;8.93;;
17151;SDS011;8691;50.828;4.700;2023-03-01T09:09:42;11.03;;;8.63;;
17151;SDS011;8691;50.828;4.700;2023-03-01T09:12:09;10.07;;;9.07;;
17151;SDS011;8691;50.828;4.700;2023-03-01T09:14:36;10.37;;;9.23;;
17151;SDS011;8691;50.828;4.700;2023-03-01T09:17:02;9.60;;;8.77;;
17151;SDS011;8691;50.828;4.700;2023-03-01T09:19:29;11.37;;;9.07;;
17151;SDS011;8691;50.828;4.700;2023-03-01T09:21:55;9.90;;;8.97;;
17151;SDS011;8691;50.828;4.700;2023-03-01T09:24:22;11.17;;;9.23;;
17151;SDS011;8691;50.828;4.700;2023-03-01T09:26:49;9.77;;;8.87;;
17151;SDS011;8691;50.828;4.700;2023-03-01T09:29:16;10.00;;;9.00;;
17151;SDS011;8691;50.828;4.700;2023-03-01T09:31:42;10.57;;;9.57;;
17151;SDS011;8691;50.828;4.700;2023-03-01T09:34:09;10.47;;;9.37;;
17151;SDS011;8691;50.828;4.700;2023-03-01T09:36:36;9.77;;;8.77;;
17151;SDS011;8691;50.828;4.700;2023-03-01T09:39:03;11.23;;;8.87;;
17151;SDS011;8691;50.828;4.700;2023-03-01T09:46:54;11.45;;;10.30;;
17151;SDS011;8691;50.828;4.700;2023-03-01T09:49:22;11.02;;;10.02;;
17151;SDS011;8691;50.828;4.700;2023-03-01T09:51:55;10.33;;;9.33;;
17151;SDS011;8691;50.828;4.700;2023-03-01T09:54:35;10.50;;;9.40;;
17151;SDS011;8691;50.828;4.700;2023-03-01T10:02:27;10.07;;;8.83;;
17151;SDS011;8691;50.828;4.700;2023-03-01T10:04:54;10.47;;;9.47;;
17151;SDS011;8691;50.828;4.700;2023-03-01T10:09:55;9.80;;;8.90;;
17151;SDS011;8691;50.828;4.700;2023-03-01T10:12:26;10.60;;;9.10;;
17151;SDS011;8691;50.828;4.700;2023-03-01T10:14:55;9.60;;;8.77;;
17151;SDS011;8691;50.828;4.700;2023-03-01T10:17:44;10.50;;;9.30;;
17151;SDS011;8691;50.828;4.700;2023-03-01T10:20:14;10.13;;;9.10;;
17151;SDS011;8691;50.828;4.700;2023-03-01T10:22:40;10.40;;;9.37;;
17151;SDS011;8691;50.828;4.700;2023-03-01T10:25:08;9.53;;;8.60;;
17151;SDS011;8691;50.828;4.700;2023-03-01T10:27:40;11.57;;;10.50;;
17151;SDS011;8691;50.828;4.700;2023-03-01T10:30:19;11.90;;;10.80;;
17151;SDS011;8691;50.828;4.700;2023-03-01T10:33:03;11.20;;;10.20;;
17151;SDS011;8691;50.828;4.700;2023-03-01T10:35:32;10.43;;;9.40;;
17151;SDS011;8691;50.828;4.700;2023-03-01T10:37:58;12.40;;;11.20;;
17151;SDS011;8691;50.828;4.700;2023-03-01T10:40:34;12.35;;;11.18;;
17151;SDS011;8691;50.828;4.700;2023-03-01T10:43:01;11.37;;;10.27;;
17151;SDS011;8691;50.828;4.700;2023-03-01T10:45:34;10.33;;;9.43;;
17151;SDS011;8691;50.828;4.700;2023-03-01T10:48:10;10.20;;;9.20;;
17151;SDS011;8691;50.828;4.700;2023-03-01T10:50:46;10.07;;;9.07;;
17151;SDS011;8691;50.828;4.700;2023-03-01T10:53:22;11.70;;;9.80;;
17151;SDS011;8691;50.828;4.700;2023-03-01T10:56:01;11.07;;;9.97;;
17151;SDS011;8691;50.828;4.700;2023-03-01T10:58:23;10.83;;;9.67;;
17151;SDS011;8691;50.828;4.700;2023-03-01T11:11:18;12.53;;;9.67;;
17151;SDS011;8691;50.828;4.700;2023-03-01T11:13:55;8.40;;;7.57;;
17151;SDS011;8691;50.828;4.700;2023-03-01T11:16:26;11.67;;;9.27;;
17151;SDS011;8691;50.828;4.700;2023-03-01T11:19:01;10.90;;;9.70;;
17151;SDS011;8691;50.828;4.700;2023-03-01T11:24:26;9.30;;;7.97;;
17151;SDS011;8691;50.828;4.700;2023-03-01T11:26:53;9.57;;;8.57;;
17151;SDS011;8691;50.828;4.700;2023-03-01T11:29:27;9.70;;;8.57;;
17151;SDS011;8691;50.828;4.700;2023-03-01T11:31:54;10.53;;;9.53;;
17151;SDS011;8691;50.828;4.700;2023-03-01T11:34:21;10.57;;;9.23;;
17151;SDS011;8691;50.828;4.700;2023-03-01T11:36:58;11.53;;;8.60;;
17151;SDS011;8691;50.828;4.700;2023-03-01T11:39:39;13.37;;;10.00;;
17151;SDS011;8691;50.828;4.700;2023-03-01T11:42:11;9.57;;;8.67;;
17151;SDS011;8691;50.828;4.700;2023-03-01T11:44:37;11.83;;;9.13;;
17151;SDS011;8691;50.828;4.700;2023-03-01T11:49:59;12.60;;;11.20;;
17151;SDS011;8691;50.828;4.700;2023-03-01T11:52:29;12.80;;;11.48;;
17151;SDS011;8691;50.828;4.700;2023-03-01T11:57:20;10.90;;;8.93;;
17151;SDS011;8691;50.828;4.700;2023-03-01T12:03:17;9.87;;;8.87;;
17151;SDS011;8691;50.828;4.700;2023-03-01T12:10:34;11.33;;;9.73;;
17151;SDS011;8691;50.828;4.700;2023-03-01T12:15:44;10.77;;;8.67;;
17151;SDS011;8691;50.828;4.700;2023-03-01T12:23:37;11.67;;;9.70;;
17151;SDS011;8691;50.828;4.700;2023-03-01T12:28:39;12.67;;;11.00;;
17151;SDS011;8691;50.828;4.700;2023-03-01T12:34:00;12.70;;;11.40;;
17151;SDS011;8691;50.828;4.700;2023-03-01T12:37:00;12.83;;;11.53;;
17151;SDS011;8691;50.828;4.700;2023-03-01T12:49:34;10.80;;;9.70;;
17151;SDS011;8691;50.828;4.700;2023-03-01T12:52:06;11.70;;;9.03;;
17151;SDS011;8691;50.828;4.700;2023-03-01T12:54:40;12.10;;;10.13;;
17151;SDS011;8691;50.828;4.700;2023-03-01T12:57:14;10.13;;;8.03;;
17151;SDS011;8691;50.828;4.700;2023-03-01T13:02:27;13.57;;;8.70;;
17151;SDS011;8691;50.828;4.700;2023-03-01T13:07:55;12.70;;;9.90;;
17151;SDS011;8691;50.828;4.700;2023-03-01T13:10:31;10.83;;;9.57;;
17151;SDS011;8691;50.828;4.700;2023-03-01T13:13:02;10.50;;;9.50;;
17151;SDS011;8691;50.828;4.700;2023-03-01T13:15:28;11.57;;;10.00;;
17151;SDS011;8691;50.828;4.700;2023-03-01T13:18:39;10.37;;;9.03;;
17151;SDS011;8691;50.828;4.700;2023-03-01T13:20:23;12.32;;;11.23;;
17151;SDS011;8691;50.828;4.700;2023-03-01T13:23:03;12.80;;;11.47;;
17151;SDS011;8691;50.828;4.700;2023-03-01T13:25:28;12.37;;;11.07;;
17151;SDS011;8691;50.828;4.700;2023-03-01T13:35:51;13.33;;;11.93;;
17151;SDS011;8691;50.828;4.700;2023-03-01T13:41:14;11.87;;;10.40;;
17151;SDS011;8691;50.828;4.700;2023-03-01T13:43:42;11.80;;;10.60;;
17151;SDS011;8691;50.828;4.700;2023-03-01T13:46:09;14.03;;;11.30;;
17151;SDS011;8691;50.828;4.700;2023-03-01T13:48:37;13.03;;;11.73;;
17151;SDS011;8691;50.828;4.700;2023-03-01T13:51:05;13.38;;;12.10;;
17151;SDS011;8691;50.828;4.700;2023-03-01T13:53:33;12.85;;;11.55;;
17151;SDS011;8691;50.828;4.700;2023-03-01T13:56:02;13.50;;;10.47;;
17151;SDS011;8691;50.828;4.700;2023-03-01T13:58:28;13.10;;;9.40;;
17151;SDS011;8691;50.828;4.700;2023-03-01T14:00:58;12.25;;;11.05;;
17151;SDS011;8691;50.828;4.700;2023-03-01T14:03:23;10.77;;;9.77;;
17151;SDS011;8691;50.828;4.700;2023-03-01T14:06:04;10.93;;;9.83;;
17151;SDS011;8691;50.828;4.700;2023-03-01T14:08:29;10.70;;;9.60;;
17151;SDS011;8691;50.828;4.700;2023-03-01T14:11:02;9.37;;;8.47;;
17151;SDS011;8691;50.828;4.700;2023-03-01T14:16:10;11.90;;;10.60;;
17151;SDS011;8691;50.828;4.700;2023-03-01T14:18:25;12.00;;;10.90;;
17151;SDS011;8691;50.828;4.700;2023-03-01T14:20:52;8.93;;;7.70;;
17151;SDS011;8691;50.828;4.700;2023-03-01T14:23:22;8.73;;;7.80;;
17151;SDS011;8691;50.828;4.700;2023-03-01T14:25:49;9.87;;;8.70;;
17151;SDS011;8691;50.828;4.700;2023-03-01T14:28:25;11.43;;;9.57;;
17151;SDS011;8691;50.828;4.700;2023-03-01T14:30:51;8.37;;;7.57;;
17151;SDS011;8691;50.828;4.700;2023-03-01T14:33:19;11.17;;;8.13;;
17151;SDS011;8691;50.828;4.700;2023-03-01T14:36:03;9.43;;;8.33;;
17151;SDS011;8691;50.828;4.700;2023-03-01T14:38:30;10.47;;;8.10;;
17151;SDS011;8691;50.828;4.700;2023-03-01T14:40:56;10.70;;;8.07;;
17151;SDS011;8691;50.828;4.700;2023-03-01T14:43:22;9.97;;;8.90;;
17151;SDS011;8691;50.828;4.700;2023-03-01T14:45:48;9.07;;;7.40;;
17151;SDS011;8691;50.828;4.700;2023-03-01T14:48:15;12.23;;;8.80;;
17151;SDS011;8691;50.828;4.700;2023-03-01T14:50:42;9.53;;;8.50;;
17151;SDS011;8691;50.828;4.700;2023-03-01T14:53:14;10.43;;;8.50;;
17151;SDS011;8691;50.828;4.700;2023-03-01T14:55:38;9.60;;;8.37;;
17151;SDS011;8691;50.828;4.700;2023-03-01T14:58:05;8.97;;;8.07;;
17151;SDS011;8691;50.828;4.700;2023-03-01T15:00:31;9.90;;;8.20;;
17151;SDS011;8691;50.828;4.700;2023-03-01T15:03:00;10.40;;;9.13;;
17151;SDS011;8691;50.828;4.700;2023-03-01T15:05:27;10.53;;;7.53;;
17151;SDS011;8691;50.828;4.700;2023-03-01T15:07:57;9.37;;;8.33;;
17151;SDS011;8691;50.828;4.700;2023-03-01T15:10:24;8.43;;;6.97;;
17151;SDS011;8691;50.828;4.700;2023-03-01T15:12:49;9.20;;;8.20;;
17151;SDS011;8691;50.828;4.700;2023-03-01T15:17:55;8.97;;;7.73;;
17151;SDS011;8691;50.828;4.700;2023-03-01T15:20:22;9.37;;;8.43;;
17151;SDS011;8691;50.828;4.700;2023-03-01T15:22:48;10.77;;;9.73;;
17151;SDS011;8691;50.828;4.700;2023-03-01T15:25:25;9.57;;;8.57;;
17151;SDS011;8691;50.828;4.700;2023-03-01T15:27:47;8.43;;;7.63;;
17151;SDS011;8691;50.828;4.700;2023-03-01T15:30:17;10.83;;;9.30;;
17151;SDS011;8691;50.828;4.700;2023-03-01T15:32:40;11.93;;;10.35;;
17151;SDS011;8691;50.828;4.700;2023-03-01T15:37:59;13.52;;;10.40;;
17151;SDS011;8691;50.828;4.700;2023-03-01T15:40:29;9.93;;;8.97;;
17151;SDS011;8691;50.828;4.700;2023-03-01T15:43:00;9.80;;;8.63;;
17151;SDS011;8691;50.828;4.700;2023-03-01T15:45:25;8.87;;;7.97;;
17151;SDS011;8691;50.828;4.700;2023-03-01T15:47:51;10.40;;;9.20;;
17151;SDS011;8691;50.828;4.700;2023-03-01T15:50:24;11.83;;;8.87;;
17151;SDS011;8691;50.828;4.700;2023-03-01T15:52:52;10.03;;;8.50;;
17151;SDS011;8691;50.828;4.700;2023-03-01T15:55:20;11.70;;;8.73;;
17151;SDS011;8691;50.828;4.700;2023-03-01T15:57:46;9.17;;;8.03;;
17151;SDS011;8691;50.828;4.700;2023-03-01T16:00:12;11.70;;;8.70;;
17151;SDS011;8691;50.828;4.700;2023-03-01T16:02:39;9.80;;;8.17;;
17151;SDS011;8691;50.828;4.700;2023-03-01T16:05:05;9.17;;;7.47;;
17151;SDS011;8691;50.828;4.700;2023-03-01T16:07:32;8.40;;;7.50;;
17151;SDS011;8691;50.828;4.700;2023-03-01T16:09:59;10.40;;;8.97;;
17151;SDS011;8691;50.828;4.700;2023-03-01T16:12:25;10.50;;;9.40;;
17151;SDS011;8691;50.828;4.700;2023-03-01T16:14:52;14.67;;;9.73;;
17151;SDS011;8691;50.828;4.700;2023-03-01T16:17:19;10.37;;;9.37;;
17151;SDS011;8691;50.828;4.700;2023-03-01T16:19:46;8.93;;;8.03;;
17151;SDS011;8691;50.828;4.700;2023-03-01T16:22:12;8.67;;;7.83;;
17151;SDS011;8691;50.828;4.700;2023-03-01T16:24:39;11.33;;;7.80;;
17151;SDS011;8691;50.828;4.700;2023-03-01T16:27:06;9.43;;;8.52;;
17151;SDS011;8691;50.828;4.700;2023-03-01T16:29:33;8.53;;;7.67;;
17151;SDS011;8691;50.828;4.700;2023-03-01T16:32:02;9.30;;;7.27;;
17151;SDS011;8691;50.828;4.700;2023-03-01T16:34:28;8.90;;;7.37;;
17151;SDS011;8691;50.828;4.700;2023-03-01T16:36:55;8.97;;;6.37;;
17151;SDS011;8691;50.828;4.700;2023-03-01T16:39:22;7.97;;;7.17;;
17151;SDS011;8691;50.828;4.700;2023-03-01T16:41:48;10.43;;;7.40;;
17151;SDS011;8691;50.828;4.700;2023-03-01T16:44:15;7.73;;;6.93;;
17151;SDS011;8691;50.828;4.700;2023-03-01T16:46:42;9.80;;;7.27;;